createdAt,value
2022-12-24T00:00:35.610Z,5.78
2022-12-24T00:03:02.638Z,6.65
2022-12-24T00:05:29.355Z,6.72
2022-12-24T00:07:55.965Z,5.65
2022-12-24T00:10:22.646Z,6.22
2022-12-24T00:12:49.398Z,5.95
2022-12-24T00:15:16.030Z,5.82
2022-12-24T00:17:42.648Z,7.03
2022-12-24T00:20:09.752Z,7.20
2022-12-24T00:27:50.958Z,5.70
2022-12-24T00:30:17.721Z,6.43
2022-12-24T00:35:13.091Z,5.35
2022-12-24T00:45:33.695Z,7.28
2022-12-24T00:51:03.542Z,5.80
2022-12-24T00:53:30.236Z,6.10
2022-12-24T00:58:22.288Z,5.85
2022-12-24T01:00:49.003Z,5.95
2022-12-24T01:03:15.825Z,6.63
2022-12-24T01:05:42.594Z,6.72
2022-12-24T01:08:12.235Z,6.18
2022-12-24T01:10:38.876Z,6.10
2022-12-24T01:13:05.501Z,5.82
2022-12-24T01:15:32.254Z,6.35
2022-12-24T01:20:27.161Z,6.63
2022-12-24T01:22:53.977Z,6.05
2022-12-24T01:25:20.737Z,6.50
2022-12-24T01:27:47.530Z,6.55
2022-12-24T01:30:15.201Z,5.88
2022-12-24T01:35:08.032Z,6.55
2022-12-24T01:37:34.702Z,9.35
2022-12-24T01:40:19.972Z,5.97
2022-12-24T01:43:07.107Z,6.55
2022-12-24T01:50:44.585Z,6.63
2022-12-24T01:55:37.035Z,7.50
2022-12-24T01:58:04.312Z,7.95
2022-12-24T02:00:34.040Z,5.90
2022-12-24T02:03:01.060Z,6.57
2022-12-24T02:05:27.821Z,7.45
2022-12-24T02:17:41.778Z,5.90
2022-12-24T02:20:11.337Z,5.85
2022-12-24T02:22:55.916Z,5.10
2022-12-24T02:25:40.848Z,5.25
2022-12-24T02:33:26.968Z,6.32
2022-12-24T02:36:04.568Z,5.28
2022-12-24T02:46:04.115Z,5.10
2022-12-24T02:48:41.448Z,5.93
2022-12-24T02:51:09.396Z,4.88
2022-12-24T02:53:36.360Z,4.68
2022-12-24T02:56:09.059Z,4.65
2022-12-24T03:01:23.304Z,5.75
2022-12-24T03:03:50.035Z,5.95
2022-12-24T03:06:22.935Z,5.15
2022-12-24T03:11:20.258Z,5.35
2022-12-24T03:13:47.623Z,5.53
2022-12-24T03:16:16.747Z,5.93
2022-12-24T03:18:46.128Z,5.38
2022-12-24T03:21:33.038Z,5.47
2022-12-24T03:23:59.846Z,4.93
2022-12-24T03:26:27.497Z,6.15
2022-12-24T03:28:54.211Z,6.45
2022-12-24T03:31:20.951Z,6.35
2022-12-24T03:33:48.039Z,4.88
2022-12-24T03:36:14.909Z,5.63
2022-12-24T03:38:41.573Z,5.47
2022-12-24T03:41:10.565Z,7.25
2022-12-24T03:46:07.436Z,5.95
2022-12-24T03:48:35.563Z,6.05
2022-12-24T03:51:03.053Z,5.68
2022-12-24T03:53:29.784Z,6.20
2022-12-24T03:55:56.486Z,6.50
2022-12-24T03:58:23.111Z,6.00
2022-12-24T04:00:49.827Z,6.30
2022-12-24T04:03:16.584Z,5.97
2022-12-24T04:05:43.339Z,5.55
2022-12-24T04:08:10.000Z,5.55
2022-12-24T04:10:36.597Z,4.95
2022-12-24T04:15:28.654Z,4.55
2022-12-24T04:17:55.321Z,6.45
2022-12-24T04:20:21.963Z,5.22
2022-12-24T04:22:48.652Z,5.15
2022-12-24T04:25:15.469Z,5.10
2022-12-24T04:27:42.099Z,5.95
2022-12-24T04:30:09.105Z,5.70
2022-12-24T04:32:35.692Z,6.38
2022-12-24T04:39:53.933Z,4.30
2022-12-24T04:44:46.140Z,5.22
2022-12-24T04:47:12.843Z,5.65
2022-12-24T04:49:39.618Z,5.25
2022-12-24T04:52:06.277Z,5.18
2022-12-24T04:54:32.992Z,5.05
2022-12-24T04:56:59.810Z,5.68
2022-12-24T04:59:26.494Z,5.30
2022-12-24T05:01:53.213Z,5.18
2022-12-24T05:04:19.890Z,5.38
2022-12-24T05:06:46.579Z,6.20
2022-12-24T05:09:13.301Z,5.20
2022-12-24T05:11:40.007Z,5.28
2022-12-24T05:14:06.689Z,6.68
2022-12-24T05:16:33.407Z,4.90
2022-12-24T05:19:00.120Z,5.25
2022-12-24T05:21:26.854Z,5.97
2022-12-24T05:24:12.395Z,5.22
2022-12-24T05:26:39.074Z,5.15
2022-12-24T05:29:06.414Z,6.22
2022-12-24T05:41:16.531Z,4.80
2022-12-24T05:43:43.491Z,4.95
2022-12-24T05:48:40.622Z,5.90
2022-12-24T05:51:08.589Z,5.22
2022-12-24T05:53:35.823Z,5.20
2022-12-24T05:58:32.014Z,5.82
2022-12-24T06:00:58.788Z,4.93
2022-12-24T06:03:25.458Z,4.95
2022-12-24T06:06:19.420Z,5.30
2022-12-24T06:08:46.428Z,4.70
2022-12-24T06:11:14.157Z,4.90
2022-12-24T06:13:41.167Z,6.38
2022-12-24T06:18:34.917Z,5.80
2022-12-24T06:21:01.609Z,5.47
2022-12-24T06:23:32.429Z,5.50
2022-12-24T06:26:01.137Z,6.25
2022-12-24T06:28:28.438Z,5.45
2022-12-24T06:33:20.573Z,6.18
2022-12-24T06:35:47.891Z,6.15
2022-12-24T06:43:07.601Z,5.80
2022-12-24T06:45:34.412Z,7.40
2022-12-24T06:48:01.464Z,4.88
2022-12-24T06:50:28.389Z,6.15
2022-12-24T06:52:55.525Z,5.47
2022-12-24T06:55:22.240Z,6.00
2022-12-24T06:57:48.863Z,6.30
2022-12-24T07:05:07.597Z,5.40
2022-12-24T07:07:34.314Z,6.25
2022-12-24T07:10:00.959Z,6.13
2022-12-24T07:12:27.869Z,5.20
2022-12-24T07:14:54.555Z,5.18
2022-12-24T07:17:21.379Z,5.03
2022-12-24T07:19:48.144Z,6.00
2022-12-24T07:24:40.181Z,7.20
2022-12-24T07:27:07.011Z,6.72
2022-12-24T07:29:33.694Z,7.90
2022-12-24T07:32:00.546Z,9.35
2022-12-24T07:34:27.239Z,7.97
2022-12-24T07:36:53.833Z,7.78
2022-12-24T07:39:20.484Z,7.43
2022-12-24T07:41:47.228Z,7.28
2022-12-24T07:46:40.290Z,5.63
2022-12-24T07:49:07.137Z,5.80
2022-12-24T07:51:33.850Z,5.90
2022-12-24T07:54:00.631Z,5.50
2022-12-24T07:56:27.392Z,5.13
2022-12-24T08:01:19.563Z,6.93
2022-12-24T08:03:46.452Z,6.55
2022-12-24T08:06:13.272Z,5.57
2022-12-24T08:08:39.936Z,6.32
2022-12-24T08:11:07.027Z,5.78
2022-12-24T08:13:34.074Z,5.45
2022-12-24T08:16:00.902Z,5.53
2022-12-24T08:18:27.634Z,5.85
2022-12-24T08:20:54.249Z,6.10
2022-12-24T08:23:21.033Z,7.85
2022-12-24T08:25:48.146Z,6.63
2022-12-24T08:28:15.931Z,6.13
2022-12-24T08:30:44.707Z,5.78
2022-12-24T08:33:11.379Z,6.22
2022-12-24T08:35:37.995Z,6.18
2022-12-24T08:38:04.696Z,5.85
2022-12-24T08:40:31.413Z,5.70
2022-12-24T08:42:58.159Z,5.35
2022-12-24T08:47:50.244Z,6.32
2022-12-24T08:50:16.988Z,6.60
2022-12-24T08:55:09.191Z,6.55
2022-12-24T08:57:36.843Z,6.30
2022-12-24T09:05:05.949Z,5.55
2022-12-24T09:07:32.674Z,7.30
2022-12-24T09:09:59.379Z,8.23
2022-12-24T09:12:26.159Z,10.57
2022-12-24T09:14:59.520Z,9.63
2022-12-24T09:17:29.858Z,10.30
2022-12-24T09:19:56.661Z,10.02
2022-12-24T09:22:23.300Z,9.20
2022-12-24T09:32:06.862Z,4.97
2022-12-24T09:34:33.740Z,6.20
2022-12-24T09:37:02.491Z,6.50
2022-12-24T09:39:29.324Z,4.80
2022-12-24T09:42:26.157Z,5.50
2022-12-24T09:44:55.650Z,4.72
2022-12-24T09:47:22.281Z,4.10
2022-12-24T09:49:52.053Z,5.30
2022-12-24T09:52:36.705Z,4.68
2022-12-24T09:55:06.884Z,4.65
2022-12-24T09:57:37.108Z,4.32
2022-12-24T10:00:04.830Z,5.13
2022-12-24T10:02:36.876Z,4.55
2022-12-24T10:15:11.714Z,4.57
2022-12-24T10:25:55.609Z,10.30
2022-12-24T10:28:25.158Z,7.47
2022-12-24T10:30:55.501Z,5.05
2022-12-24T10:38:20.523Z,4.57
2022-12-24T10:43:19.554Z,4.75
2022-12-24T10:45:47.749Z,4.30
2022-12-24T10:48:18.835Z,4.70
2022-12-24T10:50:57.831Z,4.20
2022-12-24T10:53:32.408Z,4.22
2022-12-24T10:56:04.163Z,3.88
2022-12-24T10:58:30.774Z,4.18
2022-12-24T11:03:24.878Z,5.45
2022-12-24T11:06:02.235Z,4.20
2022-12-24T11:15:51.707Z,4.18
2022-12-24T11:23:18.011Z,3.60
2022-12-24T11:25:49.537Z,3.92
2022-12-24T11:31:07.299Z,5.28
2022-12-24T11:33:46.925Z,3.80
2022-12-24T11:36:14.211Z,4.85
2022-12-24T11:38:40.816Z,4.72
2022-12-24T11:41:09.997Z,5.20
2022-12-24T11:43:47.219Z,4.00
2022-12-24T11:51:07.776Z,5.65
2022-12-24T12:10:15.307Z,5.32
2022-12-24T12:12:45.818Z,3.63
2022-12-24T12:15:17.848Z,3.80
2022-12-24T12:18:00.262Z,5.00
2022-12-24T12:27:59.328Z,3.30
2022-12-24T12:30:26.747Z,4.85
2022-12-24T12:38:22.690Z,12.65
2022-12-24T12:41:04.443Z,14.68
2022-12-24T12:51:09.850Z,6.10
2022-12-24T12:53:42.692Z,9.02
2022-12-24T12:59:10.258Z,12.43
2022-12-24T13:04:27.550Z,8.82
2022-12-24T13:09:44.956Z,5.82
2022-12-24T13:12:17.524Z,5.38
2022-12-24T13:14:44.153Z,5.05
2022-12-24T13:17:29.625Z,6.80
2022-12-24T13:19:59.157Z,5.10
2022-12-24T13:22:25.813Z,7.68
2022-12-24T13:24:53.589Z,3.80
2022-12-24T13:27:23.657Z,3.50
2022-12-24T13:29:55.387Z,3.88
2022-12-24T13:32:22.218Z,4.78
2022-12-24T13:34:53.183Z,8.23
2022-12-24T13:40:03.893Z,5.53
2022-12-24T13:42:49.253Z,5.47
2022-12-24T13:45:31.059Z,5.03
2022-12-24T13:57:53.988Z,4.63
2022-12-24T14:00:20.810Z,4.68
2022-12-24T14:10:23.050Z,6.03
2022-12-24T14:15:36.892Z,3.92
2022-12-24T14:18:03.921Z,4.57
2022-12-24T14:20:32.613Z,5.78
2022-12-24T14:27:56.193Z,4.45
2022-12-24T14:32:53.424Z,4.18
2022-12-24T14:35:21.418Z,3.75
2022-12-24T14:42:54.123Z,3.38
2022-12-24T14:48:19.390Z,4.07
2022-12-24T14:50:52.258Z,5.45
2022-12-24T14:58:40.266Z,7.45
2022-12-24T15:01:27.178Z,6.13
2022-12-24T15:04:19.963Z,4.85
2022-12-24T15:06:49.533Z,4.93
2022-12-24T15:16:39.202Z,6.97
2022-12-24T16:11:39.646Z,4.88
2022-12-24T16:14:14.446Z,5.70
2022-12-24T16:19:21.035Z,9.30
2022-12-24T16:31:47.067Z,15.15
2022-12-24T16:34:23.447Z,15.45
2022-12-24T16:39:24.483Z,4.97
2022-12-24T16:42:13.732Z,4.38
2022-12-24T16:44:41.059Z,4.20
2022-12-24T16:47:11.222Z,5.68
2022-12-24T16:49:38.714Z,8.18
2022-12-24T16:52:06.431Z,8.77
2022-12-24T16:54:33.123Z,7.03
2022-12-24T16:56:59.798Z,5.70
2022-12-24T16:59:26.479Z,5.40
2022-12-24T17:01:53.245Z,8.10
2022-12-24T17:06:45.846Z,13.15
2022-12-24T17:09:12.738Z,10.00
2022-12-24T17:14:08.662Z,10.73
2022-12-24T17:16:37.749Z,10.07
2022-12-24T17:19:05.055Z,7.00
2022-12-24T17:21:32.032Z,4.93
2022-12-24T17:23:58.876Z,5.10
2022-12-24T17:26:25.536Z,4.47
2022-12-24T17:28:55.830Z,4.40
2022-12-24T17:31:23.243Z,4.88
2022-12-24T17:43:38.322Z,7.07
2022-12-24T17:46:06.405Z,8.57
2022-12-24T17:48:33.182Z,7.45
2022-12-24T17:51:04.234Z,8.38
2022-12-24T17:53:32.089Z,9.00
2022-12-24T17:55:59.182Z,8.93
2022-12-24T17:58:25.844Z,9.88
2022-12-24T18:06:25.630Z,8.23
2022-12-24T18:08:58.405Z,9.30
2022-12-24T18:11:30.545Z,8.63
2022-12-24T18:13:57.376Z,9.98
2022-12-24T18:16:25.765Z,9.27
2022-12-24T18:18:52.661Z,7.78
2022-12-24T18:21:20.695Z,6.93
2022-12-24T18:23:48.527Z,8.82
2022-12-24T18:33:35.417Z,6.90
2022-12-24T18:36:02.307Z,6.82
2022-12-24T18:38:28.979Z,6.13
2022-12-24T18:43:21.347Z,7.75
2022-12-24T18:45:48.958Z,6.07
2022-12-24T18:48:15.587Z,5.95
2022-12-24T18:50:42.389Z,6.40
2022-12-24T18:53:09.049Z,7.13
2022-12-24T18:55:36.275Z,6.38
2022-12-24T18:58:03.071Z,6.78
2022-12-24T19:00:29.969Z,5.80
2022-12-24T19:07:55.085Z,6.80
2022-12-24T19:12:47.433Z,5.68
2022-12-24T19:15:15.213Z,5.47
2022-12-24T19:20:08.159Z,5.05
2022-12-24T19:22:34.852Z,5.38
2022-12-24T19:25:01.558Z,5.65
2022-12-24T19:27:28.367Z,5.30
2022-12-24T19:29:55.189Z,5.43
2022-12-24T19:32:21.963Z,5.47
2022-12-24T19:34:48.676Z,6.13
2022-12-24T19:37:15.336Z,6.78
2022-12-24T19:42:07.977Z,7.10
2022-12-24T19:44:34.871Z,6.70
2022-12-24T19:47:01.598Z,6.88
2022-12-24T19:51:54.909Z,7.38
2022-12-24T19:54:21.616Z,7.47
2022-12-24T19:59:13.791Z,7.47
2022-12-24T20:01:40.725Z,6.72
2022-12-24T20:06:35.214Z,7.90
2022-12-24T20:09:05.016Z,7.60
2022-12-24T20:18:55.871Z,6.20
2022-12-24T20:21:22.663Z,6.68
2022-12-24T20:23:52.966Z,6.40
2022-12-24T20:28:49.952Z,6.68
2022-12-24T20:31:23.230Z,6.55
2022-12-24T20:33:53.260Z,7.15
2022-12-24T20:36:21.739Z,7.38
2022-12-24T20:38:51.530Z,9.63
2022-12-24T20:41:19.799Z,10.23
2022-12-24T20:43:48.535Z,11.07
2022-12-24T20:46:20.735Z,10.27
2022-12-24T20:48:47.719Z,9.82
2022-12-24T20:51:25.263Z,8.30
2022-12-24T20:53:53.204Z,7.82
2022-12-24T20:56:20.369Z,7.57
2022-12-24T20:58:47.172Z,7.10
2022-12-24T21:01:24.936Z,7.18
2022-12-24T21:08:53.749Z,8.55
2022-12-24T21:14:22.777Z,8.10
2022-12-24T21:16:53.156Z,7.78
2022-12-24T21:19:29.229Z,8.60
2022-12-24T21:22:10.090Z,8.45
2022-12-24T21:32:17.834Z,10.38
2022-12-24T21:34:48.654Z,9.77
2022-12-24T21:39:43.291Z,8.38
2022-12-24T21:42:15.713Z,8.25
2022-12-24T21:57:21.746Z,6.28
2022-12-24T22:02:22.994Z,8.32
2022-12-24T22:04:51.695Z,8.40
2022-12-24T22:10:26.949Z,8.30
2022-12-24T22:15:23.875Z,7.30
2022-12-24T22:17:59.835Z,6.70
2022-12-24T22:20:26.565Z,6.63
2022-12-24T22:22:53.413Z,6.50
2022-12-24T22:38:14.904Z,5.75
2022-12-24T22:40:43.978Z,5.18
2022-12-24T22:43:12.332Z,7.72
2022-12-24T22:45:39.647Z,6.38
2022-12-24T22:55:29.955Z,7.07
2022-12-24T22:57:56.756Z,7.22
2022-12-24T23:00:43.010Z,6.30
2022-12-24T23:05:36.313Z,5.18
2022-12-24T23:08:03.282Z,5.43
2022-12-24T23:10:30.063Z,5.03
2022-12-24T23:13:15.592Z,5.50
2022-12-24T23:18:08.512Z,5.18
2022-12-24T23:20:38.294Z,5.18
2022-12-24T23:30:27.206Z,4.07
2022-12-24T23:32:54.108Z,3.97
2022-12-24T23:40:12.013Z,4.38
2022-12-24T23:42:38.763Z,5.20
2022-12-24T23:45:05.764Z,4.15
2022-12-24T23:47:32.457Z,4.63
2022-12-24T23:49:59.180Z,4.30
2022-12-24T23:52:25.895Z,4.03
2022-12-24T23:54:52.544Z,4.25
